Askam-in-Furness, United Kingdom
Current Conditions -  °F | °C
As of 9:50 PM on Monday 20 Oct 2014 (Local Time) from EGNS Reporting Station
Scattered Clouds Scattered Clouds  
Wind Chill: 14°   Ceiling: Unl
Heat Index: 14°   Visibility: 6mi
Dew Point: 12°   Wind: 28mph
Humidity: 88%   Direction: 210°SSW
Pressure: 29.59"   Gusts: NA
Location:  54.18°N, 3.22°W
Report Text: EGNS 202050Z 21024KT 9999 SCT015 14/12 Q1002
Loading
Personal Weather Stations






























Interactive Weather Map
Tropical Storm Tracking
New forecast layout! Learn more

10-Day Weather Forecast

Advertisements
Track Severe Weather on mobile